Time;durP1;ratioP1;P1;durP2;ratioP2;P2;SDS_P1;SDS_P2;PMS_P1;PMS_P2;Temp;Humidity;BMP_temperature;BMP_pressure;BME280_temperature;BME280_humidity;BME280_pressure;Samples;Min_cycle;Max_cycle;Signal;HPM_P1;HPM_P2
2023/04/25 00:01:24;;;;;;;14.47;5.23;;;7.00;99.90;;;;;;5016910;28;20083;-80
2023/04/25 00:03:50;;;;;;;19.70;6.17;;;6.90;99.90;;;;;;4997875;28;20121;-80
2023/04/25 00:06:17;;;;;;;18.47;5.87;;;6.90;99.90;;;;;;5030534;28;20049;-80
2023/04/25 00:08:43;;;;;;;22.20;5.43;;;6.90;99.90;;;;;;5014223;28;20426;-80
2023/04/25 00:11:09;;;;;;;14.00;4.90;;;6.90;99.90;;;;;;5030317;28;20144;-80
2023/04/25 00:13:34;;;;;;;18.33;5.30;;;6.90;99.90;;;;;;5011450;28;20037;-80
2023/04/25 00:16:00;;;;;;;20.10;5.87;;;6.90;99.90;;;;;;5030458;28;20107;-80
2023/04/25 00:18:29;;;;;;;19.50;5.80;;;6.90;99.90;;;;;;5030126;28;20071;-80
2023/04/25 00:20:55;;;;;;;22.53;5.67;;;6.90;99.90;;;;;;5030077;28;20128;-80
2023/04/25 00:23:21;;;;;;;17.03;5.03;;;6.90;99.90;;;;;;5030062;28;20416;-79
2023/04/25 00:25:49;;;;;;;14.17;5.00;;;6.80;99.90;;;;;;5007914;28;20056;-79
2023/04/25 00:28:15;;;;;;;24.87;5.33;;;6.80;99.90;;;;;;5029629;28;20045;-80
2023/04/25 00:30:42;;;;;;;16.73;5.17;;;6.80;99.90;;;;;;5013514;28;20053;-80
2023/04/25 00:33:07;;;;;;;14.03;5.00;;;6.80;99.90;;;;;;5013783;28;20818;-80
2023/04/25 00:35:34;;;;;;;16.90;4.97;;;6.80;99.90;;;;;;5013307;28;20136;-80
2023/04/25 00:38:00;;;;;;;24.50;6.17;;;6.70;99.90;;;;;;5022255;28;20045;-80
2023/04/25 00:40:26;;;;;;;18.07;5.63;;;6.70;99.90;;;;;;5029809;28;20049;-80
2023/04/25 00:42:52;;;;;;;23.17;5.50;;;6.70;99.90;;;;;;4997343;28;20450;-80
2023/04/25 00:45:18;;;;;;;20.70;5.87;;;6.70;99.90;;;;;;5001518;28;20049;-80
2023/04/25 00:47:45;;;;;;;20.43;5.43;;;6.70;99.90;;;;;;5031813;28;20038;-80
2023/04/25 00:50:11;;;;;;;17.63;5.20;;;6.70;99.90;;;;;;5017882;28;20052;-80
2023/04/25 00:52:43;;;;;;;18.57;5.10;;;6.70;99.90;;;;;;5033989;28;20485;-80
2023/04/25 00:55:10;;;;;;;16.00;5.00;;;6.70;99.90;;;;;;5033706;28;20557;-80
2023/04/25 00:57:36;;;;;;;17.27;4.97;;;6.70;99.90;;;;;;5026851;28;20049;-80
2023/04/25 01:00:05;;;;;;;22.23;5.73;;;6.70;99.90;;;;;;5029824;28;20037;-80
2023/04/25 01:02:32;;;;;;;20.80;5.40;;;6.60;99.90;;;;;;5017652;28;20067;-80
2023/04/25 01:04:58;;;;;;;17.07;5.60;;;6.70;99.90;;;;;;5033679;28;20046;-80
2023/04/25 01:07:24;;;;;;;17.93;5.43;;;6.70;99.90;;;;;;5033676;28;20496;-80
2023/04/25 01:09:51;;;;;;;19.03;5.33;;;6.70;99.90;;;;;;5017088;28;20041;-79
2023/04/25 01:12:17;;;;;;;16.87;5.60;;;6.60;99.90;;;;;;5033456;28;20041;-80
2023/04/25 01:14:43;;;;;;;14.43;5.20;;;6.60;99.90;;;;;;5016936;28;20396;-80
2023/04/25 01:17:09;;;;;;;17.90;5.23;;;6.60;99.90;;;;;;5000783;28;20052;-80
2023/04/25 01:19:35;;;;;;;18.57;5.33;;;6.60;99.90;;;;;;5033408;28;20046;-80
2023/04/25 01:22:01;;;;;;;17.80;5.53;;;6.60;99.90;;;;;;5015491;28;20474;-80
2023/04/25 01:24:27;;;;;;;22.50;6.20;;;6.60;99.90;;;;;;5016799;28;20147;-80
2023/04/25 01:26:56;;;;;;;14.27;5.27;;;6.60;99.90;;;;;;5033333;28;20033;-80
2023/04/25 01:29:23;;;;;;;19.37;5.70;;;6.50;99.90;;;;;;5033082;28;20053;-80
2023/04/25 01:31:50;;;;;;;15.20;5.23;;;6.50;99.90;;;;;;5016520;28;20048;-80
2023/04/25 01:34:16;;;;;;;17.43;5.43;;;6.50;99.90;;;;;;5033294;28;20041;-80
2023/04/25 01:36:42;;;;;;;21.90;5.50;;;6.50;99.90;;;;;;5033028;28;20473;-80
2023/04/25 01:39:07;;;;;;;17.93;5.50;;;6.50;99.90;;;;;;5033013;28;20042;-80
2023/04/25 01:41:34;;;;;;;21.43;4.90;;;6.50;99.90;;;;;;5033047;28;20041;-80
2023/04/25 01:44:00;;;;;;;15.83;4.90;;;6.40;99.90;;;;;;5016812;28;20045;-80
2023/04/25 01:46:26;;;;;;;15.07;4.90;;;6.40;99.90;;;;;;5033152;28;20460;-80
2023/04/25 01:48:52;;;;;;;18.50;4.87;;;6.30;99.90;;;;;;5032454;28;20141;-80
2023/04/25 01:51:18;;;;;;;16.30;4.80;;;6.30;99.90;;;;;;5032967;28;20045;-80
2023/04/25 01:53:44;;;;;;;19.53;5.90;;;6.30;99.90;;;;;;5015992;28;20072;-80
2023/04/25 01:56:10;;;;;;;15.67;4.80;;;6.30;99.90;;;;;;5032509;28;20560;-80
2023/04/25 01:58:36;;;;;;;15.37;4.73;;;6.20;99.90;;;;;;5016099;28;20124;-80
2023/04/25 02:01:01;;;;;;;16.47;5.00;;;6.20;99.90;;;;;;5032416;28;20049;-80
2023/04/25 02:03:27;;;;;;;18.00;4.43;;;6.20;99.90;;;;;;5032534;28;20060;-80
2023/04/25 02:05:53;;;;;;;16.73;4.90;;;6.20;99.90;;;;;;5032287;28;20081;-80
2023/04/25 02:08:18;;;;;;;13.53;5.23;;;6.20;99.90;;;;;;5032717;28;20053;-80
2023/04/25 02:10:44;;;;;;;17.40;5.13;;;6.20;99.90;;;;;;5018934;28;20470;-80
2023/04/25 02:13:10;;;;;;;13.73;5.10;;;6.20;99.90;;;;;;5010649;28;20049;-80
2023/04/25 02:15:35;;;;;;;13.63;4.60;;;6.30;99.90;;;;;;5031913;28;20042;-80
2023/04/25 02:18:01;;;;;;;17.23;5.20;;;6.20;99.90;;;;;;5031815;28;20049;-80
2023/04/25 02:20:28;;;;;;;15.00;4.37;;;6.30;99.90;;;;;;5031800;28;20128;-80
2023/04/25 02:22:54;;;;;;;17.33;4.77;;;6.30;99.90;;;;;;5032025;28;20049;-80
2023/04/25 02:25:21;;;;;;;18.73;5.13;;;6.30;99.90;;;;;;5032140;28;20103;-80
2023/04/25 02:27:48;;;;;;;14.93;4.90;;;6.30;99.90;;;;;;5032085;28;20046;-80
2023/04/25 02:30:14;;;;;;;17.77;4.87;;;6.30;99.90;;;;;;5032063;28;20095;-80
2023/04/25 02:32:40;;;;;;;16.90;4.63;;;6.30;99.90;;;;;;5015502;28;20038;-80
2023/04/25 02:35:06;;;;;;;17.83;4.97;;;6.20;99.90;;;;;;5031830;28;20037;-80
2023/04/25 02:37:33;;;;;;;18.00;4.73;;;6.20;99.90;;;;;;5006383;28;20061;-80
2023/04/25 02:39:58;;;;;;;18.83;4.77;;;6.20;99.90;;;;;;5015302;28;20045;-80
2023/04/25 02:42:24;;;;;;;17.37;4.83;;;6.20;99.90;;;;;;5031538;28;20121;-80
2023/04/25 02:44:49;;;;;;;18.60;4.70;;;6.20;99.90;;;;;;5031774;28;20045;-80
2023/04/25 02:47:15;;;;;;;15.23;4.70;;;6.20;99.90;;;;;;5015133;28;20053;-80
2023/04/25 02:49:41;;;;;;;16.03;4.57;;;6.20;99.90;;;;;;5031190;28;20501;-80
2023/04/25 02:52:07;;;;;;;11.80;4.40;;;6.20;99.90;;;;;;5031748;28;20094;-80
2023/04/25 02:54:32;;;;;;;16.03;5.17;;;6.20;99.90;;;;;;5031761;28;20125;-80
2023/04/25 02:56:58;;;;;;;15.43;4.53;;;6.20;99.90;;;;;;5031879;28;20546;-80
2023/04/25 02:59:24;;;;;;;13.50;4.17;;;6.10;99.90;;;;;;5028299;28;20223;-80
2023/04/25 03:01:49;;;;;;;17.57;5.10;;;6.10;99.90;;;;;;5027221;28;20063;-80
2023/04/25 03:04:15;;;;;;;13.53;4.00;;;6.10;99.90;;;;;;5030846;28;20057;-79
2023/04/25 03:06:41;;;;;;;13.37;4.20;;;6.10;99.90;;;;;;4997824;28;20142;-80
2023/04/25 03:09:07;;;;;;;13.37;4.77;;;6.10;99.90;;;;;;5014697;28;20549;-80
2023/04/25 03:11:32;;;;;;;13.87;4.00;;;6.10;99.90;;;;;;5014693;28;20046;-80
2023/04/25 03:13:58;;;;;;;12.03;3.83;;;6.10;99.90;;;;;;5031537;28;20041;-80
2023/04/25 03:16:24;;;;;;;16.73;4.33;;;6.10;99.90;;;;;;5031008;28;20053;-80
2023/04/25 03:18:50;;;;;;;15.60;4.50;;;6.10;99.90;;;;;;5031361;28;20385;-81
2023/04/25 03:21:17;;;;;;;14.33;4.13;;;6.10;99.90;;;;;;4998540;28;20120;-80
2023/04/25 03:23:42;;;;;;;14.87;4.27;;;6.10;99.90;;;;;;5025864;28;20056;-80
2023/04/25 03:26:08;;;;;;;14.47;3.80;;;6.10;99.90;;;;;;5011529;28;20385;-80
2023/04/25 03:28:34;;;;;;;18.03;5.27;;;6.10;99.90;;;;;;5013192;28;20041;-80
2023/04/25 03:30:59;;;;;;;16.20;3.90;;;6.10;99.90;;;;;;5014537;28;20133;-80
2023/04/25 03:33:25;;;;;;;14.80;4.27;;;6.10;99.90;;;;;;5025825;28;20076;-81
2023/04/25 03:35:51;;;;;;;12.63;3.87;;;6.10;99.90;;;;;;5015063;28;20392;-80
2023/04/25 03:38:17;;;;;;;14.70;4.20;;;6.10;99.90;;;;;;5014387;28;20037;-80
2023/04/25 03:40:43;;;;;;;16.60;4.07;;;6.10;99.90;;;;;;5031417;28;20099;-81
2023/04/25 03:43:08;;;;;;;10.97;4.00;;;6.10;99.90;;;;;;5010858;28;20065;-81
2023/04/25 03:45:34;;;;;;;12.93;3.83;;;6.10;99.90;;;;;;5030995;28;20045;-80
2023/04/25 03:48:00;;;;;;;17.50;3.73;;;6.10;99.90;;;;;;5031238;28;20038;-80
2023/04/25 03:50:26;;;;;;;17.90;4.03;;;6.10;99.90;;;;;;5014496;28;20145;-81
2023/04/25 03:52:51;;;;;;;13.37;3.87;;;6.10;99.90;;;;;;5014045;28;20057;-81
2023/04/25 03:55:17;;;;;;;15.90;4.30;;;6.10;99.90;;;;;;4997812;28;20124;-80
2023/04/25 03:57:43;;;;;;;14.13;3.63;;;6.10;99.90;;;;;;5030406;28;20049;-80
2023/04/25 04:00:09;;;;;;;14.50;3.63;;;6.10;99.90;;;;;;5030417;28;20576;-80
2023/04/25 04:02:36;;;;;;;14.93;4.00;;;6.10;99.90;;;;;;5030587;28;20397;-80
2023/04/25 04:05:02;;;;;;;14.47;4.13;;;6.10;99.90;;;;;;5030263;28;20057;-81
2023/04/25 04:07:28;;;;;;;15.43;4.17;;;6.10;99.90;;;;;;5030297;28;20049;-81
2023/04/25 04:09:54;;;;;;;10.23;3.73;;;6.10;99.90;;;;;;5014033;28;20559;-80
2023/04/25 04:12:19;;;;;;;19.57;3.57;;;6.00;99.90;;;;;;5014047;28;20053;-80
2023/04/25 04:14:45;;;;;;;14.40;3.40;;;6.00;99.90;;;;;;5030383;28;20558;-80
2023/04/25 04:17:11;;;;;;;11.23;3.73;;;6.00;99.90;;;;;;5030240;28;20047;-80
2023/04/25 04:19:36;;;;;;;14.60;3.60;;;6.00;99.90;;;;;;4997219;28;20077;-80
2023/04/25 04:22:02;;;;;;;15.93;4.00;;;6.00;99.90;;;;;;5023606;28;20038;-80
2023/04/25 04:24:28;;;;;;;12.47;3.40;;;6.00;99.90;;;;;;4997501;28;20127;-80
2023/04/25 04:26:53;;;;;;;13.47;3.27;;;5.90;99.90;;;;;;5030173;28;20029;-80
2023/04/25 04:29:20;;;;;;;16.47;3.67;;;5.90;99.90;;;;;;5030057;28;20060;-80
2023/04/25 04:31:50;;;;;;;12.77;3.67;;;5.90;99.90;;;;;;5029883;28;20041;-80
2023/04/25 04:34:17;;;;;;;11.80;3.63;;;5.80;99.90;;;;;;5030356;28;20037;-80
2023/04/25 04:36:45;;;;;;;14.20;3.60;;;5.80;99.90;;;;;;5029893;28;20080;-80
2023/04/25 04:39:12;;;;;;;9.10;2.90;;;5.80;99.90;;;;;;5012465;28;20046;-80
2023/04/25 04:41:38;;;;;;;13.80;3.30;;;5.80;99.90;;;;;;5011919;28;20049;-80
2023/04/25 04:44:04;;;;;;;11.03;2.80;;;5.70;99.90;;;;;;5017239;28;20591;-80
2023/04/25 04:46:37;;;;;;;13.93;2.77;;;5.70;99.90;;;;;;5011841;28;20088;-80
2023/04/25 04:49:06;;;;;;;10.73;2.57;;;5.70;99.90;;;;;;5028625;28;20042;-80
2023/04/25 04:51:32;;;;;;;12.77;2.93;;;5.70;99.90;;;;;;5028141;28;20825;-80
2023/04/25 04:54:02;;;;;;;10.27;3.20;;;5.80;99.90;;;;;;5011717;28;20129;-80
2023/04/25 04:56:30;;;;;;;8.07;2.63;;;5.80;99.90;;;;;;5012370;28;20041;-80
2023/04/25 04:58:59;;;;;;;7.17;2.77;;;5.80;99.90;;;;;;5012164;28;20046;-81
2023/04/25 05:01:26;;;;;;;15.03;2.90;;;5.80;99.90;;;;;;5030093;28;20547;-80
2023/04/25 05:03:52;;;;;;;12.07;3.23;;;5.80;99.90;;;;;;4998993;28;20047;-80
2023/04/25 05:06:21;;;;;;;8.63;2.60;;;5.80;99.90;;;;;;5011343;28;20050;-80
2023/04/25 05:08:46;;;;;;;7.97;2.30;;;5.80;99.90;;;;;;5016121;28;20044;-80
2023/04/25 05:11:12;;;;;;;10.47;2.93;;;5.80;99.90;;;;;;4987907;28;20042;-80
2023/04/25 05:13:38;;;;;;;13.93;3.17;;;5.70;99.90;;;;;;5001147;28;20041;-81
2023/04/25 05:16:03;;;;;;;9.80;2.20;;;5.80;99.90;;;;;;4998710;28;20077;-80
2023/04/25 05:18:30;;;;;;;8.50;2.30;;;5.70;99.90;;;;;;4988468;28;20041;-80
2023/04/25 05:20:55;;;;;;;5.23;2.40;;;5.80;99.90;;;;;;5003616;28;20041;-80
2023/04/25 05:23:21;;;;;;;11.30;2.37;;;5.80;99.90;;;;;;4988400;28;20453;-80
2023/04/25 05:25:47;;;;;;;8.50;2.40;;;5.80;99.90;;;;;;5000364;28;20077;-80
2023/04/25 05:28:13;;;;;;;10.27;2.80;;;5.80;99.90;;;;;;4988999;28;20483;-80
2023/04/25 05:30:39;;;;;;;9.00;2.80;;;5.80;99.90;;;;;;5005633;28;20511;-80
2023/04/25 05:33:05;;;;;;;10.43;2.53;;;5.90;99.90;;;;;;5006339;28;20435;-80
2023/04/25 05:35:30;;;;;;;8.37;2.77;;;5.90;99.90;;;;;;4990696;28;20045;-80
2023/04/25 05:37:56;;;;;;;8.90;2.43;;;5.90;99.90;;;;;;5001546;28;20089;-80
2023/04/25 05:40:22;;;;;;;8.90;2.70;;;6.00;99.90;;;;;;5003153;28;20038;-80
2023/04/25 05:42:47;;;;;;;10.60;2.80;;;6.00;99.90;;;;;;5010969;28;20036;-80
2023/04/25 05:45:13;;;;;;;12.33;2.80;;;6.00;99.90;;;;;;5013237;28;20108;-80
2023/04/25 05:47:39;;;;;;;6.10;2.20;;;6.00;99.90;;;;;;5013320;28;20044;-80
2023/04/25 05:50:05;;;;;;;9.50;2.43;;;6.00;99.90;;;;;;5013860;28;20475;-80
2023/04/25 05:52:31;;;;;;;8.00;2.30;;;6.00;99.90;;;;;;5016727;28;20348;-80
2023/04/25 05:54:57;;;;;;;8.73;2.10;;;6.00;99.90;;;;;;5016924;28;20169;-80
2023/04/25 05:57:26;;;;;;;9.67;2.40;;;6.10;99.90;;;;;;5022979;28;20128;-80
2023/04/25 05:59:52;;;;;;;9.93;2.40;;;6.10;99.90;;;;;;5003061;28;20050;-80
2023/04/25 06:02:20;;;;;;;9.43;2.97;;;6.10;99.90;;;;;;5010824;28;20050;-80
2023/04/25 06:04:46;;;;;;;9.23;3.20;;;6.10;99.90;;;;;;5025132;28;20528;-80
2023/04/25 06:07:12;;;;;;;19.17;2.77;;;6.20;99.90;;;;;;4994091;28;20040;-80
2023/04/25 06:09:39;;;;;;;6.60;2.63;;;6.30;99.90;;;;;;5008285;28;20034;-80
2023/04/25 06:12:06;;;;;;;8.50;2.70;;;6.40;99.90;;;;;;5020720;28;20041;-80
2023/04/25 06:14:33;;;;;;;7.90;2.97;;;6.40;99.90;;;;;;5002590;28;20114;-80
2023/04/25 06:16:58;;;;;;;9.83;2.97;;;6.50;99.90;;;;;;5029858;28;20389;-80
2023/04/25 06:19:24;;;;;;;10.10;2.80;;;6.60;99.90;;;;;;5015640;28;20052;-80
2023/04/25 06:21:50;;;;;;;8.13;2.63;;;6.60;99.90;;;;;;5028285;28;20120;-80
2023/04/25 06:24:16;;;;;;;10.03;2.87;;;6.70;99.90;;;;;;4985466;28;20074;-80
2023/04/25 06:26:41;;;;;;;9.57;2.70;;;6.80;99.90;;;;;;5010346;28;20482;-80
2023/04/25 06:29:07;;;;;;;8.47;2.83;;;6.90;99.90;;;;;;5013890;28;20054;-80
2023/04/25 06:31:33;;;;;;;6.40;2.17;;;6.90;99.90;;;;;;4997074;28;20497;-80
2023/04/25 06:33:59;;;;;;;6.83;2.40;;;7.00;99.90;;;;;;5003556;28;20045;-81
2023/04/25 06:36:27;;;;;;;8.27;2.83;;;7.00;99.90;;;;;;5015888;28;20053;-81
2023/04/25 06:38:53;;;;;;;12.00;2.80;;;7.10;99.90;;;;;;5032094;28;20038;-81
2023/04/25 06:41:19;;;;;;;8.33;2.67;;;7.20;99.90;;;;;;5015412;28;20044;-81
2023/04/25 06:43:45;;;;;;;9.80;2.50;;;7.20;99.90;;;;;;5015581;28;20694;-80
2023/04/25 06:46:11;;;;;;;10.67;2.90;;;7.20;99.90;;;;;;5031640;28;20041;-81
2023/04/25 06:48:37;;;;;;;14.27;2.73;;;7.20;99.90;;;;;;5030999;28;20485;-81
2023/04/25 06:51:03;;;;;;;12.00;3.07;;;7.20;99.90;;;;;;5010428;28;20045;-81
2023/04/25 06:53:28;;;;;;;10.50;2.50;;;7.30;99.90;;;;;;5007804;28;20060;-80
2023/04/25 06:55:54;;;;;;;7.67;2.50;;;7.40;99.90;;;;;;4997601;28;20053;-81
2023/04/25 06:58:20;;;;;;;9.60;2.37;;;7.50;99.90;;;;;;5015404;28;20045;-81
2023/04/25 07:00:45;;;;;;;12.27;3.60;;;7.70;99.90;;;;;;5021881;28;20042;-81
2023/04/25 07:03:11;;;;;;;9.80;2.37;;;7.80;99.90;;;;;;5010561;28;20045;-81
2023/04/25 07:05:37;;;;;;;7.63;2.17;;;8.00;99.90;;;;;;4991118;28;20064;-80
2023/04/25 07:08:03;;;;;;;8.87;2.70;;;8.10;99.90;;;;;;4987784;28;20061;-81
2023/04/25 07:10:29;;;;;;;8.73;2.30;;;8.20;99.90;;;;;;4983823;28;20037;-81
2023/04/25 07:12:55;;;;;;;8.33;2.20;;;8.30;99.90;;;;;;5009996;28;20448;-80
2023/04/25 07:15:20;;;;;;;11.30;2.40;;;8.20;99.90;;;;;;4987461;28;20050;-81
2023/04/25 07:17:46;;;;;;;9.13;2.30;;;8.10;99.90;;;;;;4987743;28;20096;-81
2023/04/25 07:20:12;;;;;;;11.57;2.57;;;8.20;99.90;;;;;;5015187;28;20439;-80
2023/04/25 07:22:38;;;;;;;6.50;2.17;;;8.20;99.90;;;;;;4991711;28;20083;-80
2023/04/25 07:25:04;;;;;;;13.77;2.87;;;8.10;99.90;;;;;;4989321;28;20121;-80
2023/04/25 07:27:30;;;;;;;8.27;2.20;;;8.10;99.90;;;;;;5012044;28;20397;-81
2023/04/25 07:29:57;;;;;;;6.83;2.17;;;8.00;99.90;;;;;;5006073;28;20038;-81
2023/04/25 07:32:23;;;;;;;5.97;2.23;;;8.20;99.90;;;;;;5006652;28;20053;-81
2023/04/25 07:34:48;;;;;;;7.80;2.33;;;8.30;99.90;;;;;;5000596;28;20041;-82
2023/04/25 07:37:15;;;;;;;6.23;2.00;;;8.30;99.90;;;;;;5010150;28;20049;-82
2023/04/25 07:39:41;;;;;;;7.30;2.37;;;8.30;99.90;;;;;;4986871;28;20092;-81
2023/04/25 07:42:08;;;;;;;11.57;2.50;;;8.20;99.90;;;;;;4986495;28;20064;-81
2023/04/25 07:44:38;;;;;;;8.63;2.07;;;8.10;99.90;;;;;;5002490;28;20494;-82
2023/04/25 07:47:07;;;;;;;9.70;2.40;;;8.00;99.90;;;;;;4977515;28;20041;-81
2023/04/25 07:49:35;;;;;;;8.33;2.00;;;7.90;99.90;;;;;;5004918;28;20042;-81
2023/04/25 07:52:01;;;;;;;7.73;1.93;;;7.80;99.90;;;;;;5002550;28;20510;-81
2023/04/25 07:54:27;;;;;;;9.37;2.00;;;7.70;99.90;;;;;;5003970;28;20398;-81
2023/04/25 07:56:53;;;;;;;5.13;1.77;;;7.90;99.90;;;;;;5011144;28;20041;-81
2023/04/25 07:59:19;;;;;;;10.53;2.17;;;7.90;99.90;;;;;;5006032;28;20041;-82
2023/04/25 08:01:45;;;;;;;3.83;1.43;;;8.00;99.90;;;;;;5030119;28;20042;-81
2023/04/25 08:04:11;;;;;;;6.23;1.70;;;8.20;99.90;;;;;;5029850;28;20563;-81
2023/04/25 08:06:36;;;;;;;9.83;2.07;;;8.50;99.90;;;;;;5011722;28;20084;-81
2023/04/25 08:09:03;;;;;;;7.37;1.50;;;8.70;99.90;;;;;;5017948;28;20506;-81
2023/04/25 08:11:29;;;;;;;8.53;1.60;;;8.80;99.90;;;;;;5014514;28;20048;-82
2023/04/25 08:13:55;;;;;;;6.47;1.40;;;8.80;99.90;;;;;;5030269;28;20049;-81
2023/04/25 08:16:22;;;;;;;5.73;1.30;;;8.70;99.90;;;;;;5013799;28;20049;-81
2023/04/25 08:18:48;;;;;;;7.80;1.67;;;8.60;99.90;;;;;;5000842;28;20050;-82
2023/04/25 08:21:15;;;;;;;6.23;1.47;;;8.50;99.90;;;;;;4988094;28;20100;-81
2023/04/25 08:23:40;;;;;;;5.60;1.40;;;8.40;99.90;;;;;;5002191;28;20121;-81
2023/04/25 08:26:06;;;;;;;5.70;1.47;;;8.40;99.90;;;;;;5000973;28;20048;-81
2023/04/25 08:28:32;;;;;;;9.80;1.60;;;8.30;99.90;;;;;;5017608;28;20116;-82
2023/04/25 08:30:58;;;;;;;5.67;1.43;;;8.30;99.90;;;;;;5002704;28;20568;-81
2023/04/25 08:33:24;;;;;;;8.90;1.97;;;8.40;99.90;;;;;;5005321;28;20045;-82
2023/04/25 08:35:49;;;;;;;5.47;1.67;;;8.40;99.90;;;;;;5009600;28;20050;-82
2023/04/25 08:38:15;;;;;;;5.97;1.90;;;8.20;99.90;;;;;;4992006;28;20125;-81
2023/04/25 08:40:43;;;;;;;5.00;1.67;;;8.20;99.90;;;;;;4985430;28;20054;-80
2023/04/25 08:43:11;;;;;;;9.40;1.70;;;8.10;99.90;;;;;;5005104;28;20068;-81
2023/04/25 08:45:41;;;;;;;7.60;2.03;;;8.10;99.90;;;;;;5013338;28;20037;-81
2023/04/25 08:48:12;;;;;;;7.70;1.83;;;8.40;99.90;;;;;;5023258;28;20042;-82
2023/04/25 08:50:49;;;;;;;6.82;1.67;;;8.80;99.90;;;;;;5007900;28;20042;-82
2023/04/25 08:53:18;;;;;;;5.63;1.60;;;9.00;99.90;;;;;;5013148;28;20053;-83
2023/04/25 08:55:46;;;;;;;7.33;1.90;;;9.20;99.90;;;;;;5029464;28;20049;-81
2023/04/25 08:58:12;;;;;;;5.43;1.53;;;9.10;99.90;;;;;;5029340;28;20053;-81
2023/04/25 09:00:39;;;;;;;7.37;2.07;;;9.10;99.90;;;;;;5013214;28;20089;-83
2023/04/25 09:03:05;;;;;;;3.53;1.10;;;9.10;99.90;;;;;;5013515;28;20042;-81
2023/04/25 09:05:33;;;;;;;3.80;0.83;;;8.50;99.90;;;;;;5032738;28;20232;-82
2023/04/25 09:08:00;;;;;;;6.30;1.53;;;8.10;99.90;;;;;;5030838;28;20392;-81
2023/04/25 09:10:27;;;;;;;2.77;1.00;;;7.60;99.90;;;;;;5033722;28;20123;-82
2023/04/25 09:13:08;;;;;;;3.37;1.00;;;7.20;99.90;;;;;;5033639;28;20052;-83
2023/04/25 09:15:47;;;;;;;3.80;1.05;;;7.00;99.90;;;;;;5000853;28;20041;-81
2023/04/25 09:18:13;;;;;;;3.63;1.10;;;6.90;99.90;;;;;;5015867;28;20049;-81
2023/04/25 09:20:43;;;;;;;3.60;1.20;;;6.90;99.90;;;;;;5028893;28;20056;-80
2023/04/25 09:23:09;;;;;;;3.27;1.10;;;7.00;99.90;;;;;;5017060;28;20030;-81
2023/04/25 09:25:39;;;;;;;5.70;1.20;;;7.30;99.90;;;;;;5017074;28;20037;-81
2023/04/25 09:28:06;;;;;;;3.83;1.07;;;7.70;99.90;;;;;;5003478;28;20446;-81
2023/04/25 09:30:34;;;;;;;3.30;1.20;;;8.00;99.90;;;;;;5023325;28;20420;-80
2023/04/25 09:33:08;;;;;;;3.57;1.10;;;8.20;99.90;;;;;;5033743;28;20057;-82
2023/04/25 09:35:39;;;;;;;4.07;1.30;;;8.30;99.90;;;;;;5033605;28;20041;-81
2023/04/25 09:38:23;;;;;;;3.35;1.13;;;8.40;99.90;;;;;;5028809;28;20673;-80
2023/04/25 09:40:49;;;;;;;3.23;1.20;;;8.30;99.90;;;;;;5013492;28;20486;-81
2023/04/25 09:43:25;;;;;;;4.83;1.40;;;8.30;99.90;;;;;;5033259;28;20049;-81
2023/04/25 09:45:57;;;;;;;4.23;1.30;;;8.60;99.90;;;;;;5016957;28;20037;-80
2023/04/25 09:48:24;;;;;;;6.63;1.17;;;8.70;99.90;;;;;;5016538;28;20125;-81
2023/04/25 09:51:15;;;;;;;5.83;1.50;;;8.90;99.90;;;;;;5033044;28;20072;-80
2023/04/25 09:53:43;;;;;;;4.90;1.33;;;9.20;99.90;;;;;;5001091;28;20142;-82
2023/04/25 09:56:11;;;;;;;4.63;1.20;;;9.20;99.90;;;;;;5015686;28;20124;-82
2023/04/25 09:58:39;;;;;;;4.43;1.30;;;9.50;99.90;;;;;;5033387;28;20041;-81
2023/04/25 10:01:07;;;;;;;4.40;1.67;;;9.60;99.90;;;;;;5032847;28;20405;-81
2023/04/25 10:03:43;;;;;;;4.10;1.30;;;9.70;99.90;;;;;;5032953;28;20071;-80
2023/04/25 10:06:14;;;;;;;6.27;1.50;;;9.90;99.90;;;;;;5016113;28;20042;-82
2023/04/25 10:08:41;;;;;;;7.53;1.77;;;10.00;99.90;;;;;;5032649;28;20049;-80
2023/04/25 10:11:08;;;;;;;5.20;1.40;;;10.20;99.90;;;;;;5032898;28;20060;-82
2023/04/25 10:13:35;;;;;;;3.23;1.40;;;10.50;99.90;;;;;;5032686;28;20041;-81
2023/04/25 10:16:03;;;;;;;5.30;1.20;;;10.40;99.90;;;;;;5015765;28;20655;-81
2023/04/25 10:18:30;;;;;;;3.07;1.20;;;10.10;99.90;;;;;;5025891;28;20077;-83
2023/04/25 10:21:01;;;;;;;6.50;1.87;;;9.00;99.90;;;;;;5023401;28;20037;-82
2023/04/25 10:23:29;;;;;;;3.23;1.40;;;8.30;99.90;;;;;;5016212;28;20080;-82
2023/04/25 10:25:55;;;;;;;4.70;1.30;;;7.80;99.90;;;;;;5016272;28;20152;-82
2023/04/25 10:28:21;;;;;;;6.43;1.63;;;7.50;99.90;;;;;;5010506;28;20667;-81
2023/04/25 10:31:02;;;;;;;3.33;1.30;;;7.50;99.90;;;;;;5006793;28;20052;-80
2023/04/25 10:33:39;;;;;;;3.37;1.17;;;7.50;99.90;;;;;;5016567;28;20671;-81
2023/04/25 10:36:17;;;;;;;5.17;1.60;;;7.50;99.90;;;;;;5032314;28;20363;-81
2023/04/25 10:38:44;;;;;;;3.40;1.50;;;7.60;99.90;;;;;;5015935;28;20041;-81
2023/04/25 10:41:11;;;;;;;7.47;1.60;;;7.70;99.90;;;;;;5032251;28;20052;-81
2023/04/25 10:43:44;;;;;;;3.80;1.50;;;7.70;99.90;;;;;;5015849;28;20484;-81
2023/04/25 10:46:17;;;;;;;5.90;1.73;;;7.90;99.90;;;;;;5032542;28;20068;-81
2023/04/25 10:48:48;;;;;;;6.57;1.70;;;8.40;99.90;;;;;;5032555;28;20129;-81
2023/04/25 10:51:26;;;;;;;8.13;1.90;;;8.90;99.90;;;;;;5015457;28;20100;-81
2023/04/25 10:53:55;;;;;;;6.40;1.57;;;9.30;99.90;;;;;;5015688;28;20045;-82
2023/04/25 10:56:38;;;;;;;6.33;1.70;;;9.70;99.90;;;;;;5015910;28;20045;-81
2023/04/25 10:59:20;;;;;;;4.83;1.60;;;10.10;99.90;;;;;;5032293;28;20405;-81
2023/04/25 11:01:51;;;;;;;6.50;2.30;;;10.30;99.90;;;;;;5031718;28;20049;-81
2023/04/25 11:04:36;;;;;;;8.47;1.83;;;10.30;99.90;;;;;;5031537;28;20045;-83
2023/04/25 11:07:10;;;;;;;6.60;2.07;;;10.20;99.90;;;;;;5031741;28;20656;-81
2023/04/25 11:09:40;;;;;;;7.23;1.70;;;9.90;99.90;;;;;;5031876;28;20042;-81
2023/04/25 11:12:08;;;;;;;7.60;2.30;;;9.50;99.90;;;;;;5032109;28;20105;-81
2023/04/25 11:14:35;;;;;;;5.97;2.00;;;9.40;99.90;;;;;;5031643;28;20041;-82
2023/04/25 11:17:02;;;;;;;5.50;1.80;;;9.50;99.90;;;;;;5032065;28;20420;-81
2023/04/25 11:19:30;;;;;;;6.27;1.87;;;9.60;99.90;;;;;;5001633;28;20099;-82
2023/04/25 11:22:00;;;;;;;6.37;1.57;;;9.50;99.90;;;;;;5011779;28;20129;-81
2023/04/25 11:24:28;;;;;;;5.47;1.50;;;9.30;99.90;;;;;;5025959;28;20087;-80
2023/04/25 11:26:54;;;;;;;7.23;2.57;;;8.90;99.90;;;;;;5014647;28;20081;-81
2023/04/25 11:29:26;;;;;;;5.17;1.83;;;8.90;99.90;;;;;;5031650;28;20048;-81
2023/04/25 11:31:53;;;;;;;8.73;1.63;;;9.10;99.90;;;;;;5031332;28;20049;-81
2023/04/25 11:34:19;;;;;;;6.10;1.63;;;9.60;99.90;;;;;;5016259;28;20122;-81
2023/04/25 11:36:45;;;;;;;6.83;1.97;;;10.00;99.90;;;;;;5031316;28;20141;-82
2023/04/25 11:39:12;;;;;;;7.03;1.60;;;10.10;99.90;;;;;;5022304;28;20089;-83
2023/04/25 11:41:38;;;;;;;7.40;1.73;;;9.30;99.90;;;;;;4997383;28;20073;-83
2023/04/25 11:44:05;;;;;;;8.90;1.70;;;8.60;99.90;;;;;;4999234;28;20441;-82
2023/04/25 11:46:33;;;;;;;6.27;1.70;;;7.80;99.90;;;;;;5030665;28;20033;-83
2023/04/25 11:48:59;;;;;;;6.20;1.80;;;7.50;99.90;;;;;;5032369;28;20496;-81
2023/04/25 11:51:26;;;;;;;3.27;1.40;;;7.20;99.90;;;;;;5012590;28;20069;-82
2023/04/25 11:53:52;;;;;;;9.23;2.10;;;7.10;99.90;;;;;;5020367;28;20551;-82
2023/04/25 11:56:17;;;;;;;4.23;1.73;;;7.20;99.90;;;;;;5015881;28;20037;-82
2023/04/25 11:59:01;;;;;;;6.33;1.80;;;7.40;99.90;;;;;;5032540;28;20393;-82
2023/04/25 12:01:32;;;;;;;6.30;2.00;;;7.70;99.90;;;;;;5032410;28;20512;-81
2023/04/25 12:03:58;;;;;;;3.63;1.77;;;8.10;99.90;;;;;;5033021;28;20050;-82
2023/04/25 12:06:29;;;;;;;5.33;1.87;;;8.60;99.90;;;;;;5017462;28;20057;-82
2023/04/25 12:09:07;;;;;;;6.93;1.98;;;9.00;99.90;;;;;;5015623;28;20049;-81
2023/04/25 12:11:41;;;;;;;5.50;1.80;;;9.40;99.90;;;;;;5032146;28;20037;-81
2023/04/25 12:14:07;;;;;;;6.60;1.90;;;9.80;99.90;;;;;;5015662;28;20461;-81
2023/04/25 12:16:46;;;;;;;9.70;1.90;;;10.00;99.90;;;;;;5015175;28;20065;-82
2023/04/25 12:19:16;;;;;;;5.67;2.17;;;10.10;99.90;;;;;;5005863;28;20701;-81
2023/04/25 12:21:43;;;;;;;5.57;1.83;;;10.10;99.90;;;;;;5017497;28;20045;-84
2023/04/25 12:24:26;;;;;;;9.17;2.13;;;9.80;99.90;;;;;;4999657;28;20068;-83
2023/04/25 12:27:01;;;;;;;9.30;1.70;;;9.60;99.90;;;;;;5015615;28;20106;-83
2023/04/25 12:29:31;;;;;;;7.03;2.43;;;9.70;99.90;;;;;;5015548;28;20678;-85
2023/04/25 12:31:57;;;;;;;4.97;1.80;;;10.00;99.90;;;;;;5032285;28;20562;-83
2023/04/25 12:34:23;;;;;;;4.17;1.70;;;10.10;99.90;;;;;;5032232;28;20068;-84
2023/04/25 12:36:50;;;;;;;4.13;1.37;;;10.10;99.90;;;;;;5032367;28;20539;-86
2023/04/25 12:39:23;;;;;;;3.23;1.57;;;10.30;99.90;;;;;;5017564;28;20052;-84
2023/04/25 12:41:52;;;;;;;4.97;1.50;;;10.50;99.90;;;;;;5015536;28;20042;-84
2023/04/25 12:44:17;;;;;;;4.37;1.23;;;10.60;99.90;;;;;;5032014;28;20044;-85
2023/04/25 12:46:43;;;;;;;2.17;1.10;;;10.50;99.90;;;;;;5031782;28;20041;-85
2023/04/25 12:49:09;;;;;;;4.23;1.30;;;10.50;99.90;;;;;;5015654;28;20037;-85
2023/04/25 12:51:36;;;;;;;3.50;1.30;;;10.70;99.90;;;;;;5015414;28;20045;-87